createdAt,value
2019-02-18T00:00:50.673Z,2.51
2019-02-18T00:05:58.687Z,2.23
2019-02-18T00:11:04.643Z,2.27
2019-02-18T00:16:10.363Z,2.38
2019-02-18T00:21:16.805Z,2.29
2019-02-18T00:26:22.634Z,2.36
2019-02-18T00:31:28.550Z,2.32
2019-02-18T00:36:34.399Z,1.49
2019-02-18T00:41:40.378Z,1.51
2019-02-18T00:46:46.041Z,1.25
2019-02-18T00:51:52.306Z,1.27
2019-02-18T00:56:58.567Z,1.33
2019-02-18T01:02:04.232Z,1.04
2019-02-18T01:07:11.282Z,1.35
2019-02-18T01:12:18.176Z,1.52
2019-02-18T01:17:24.353Z,1.67
2019-02-18T01:22:29.956Z,1.38
2019-02-18T01:27:35.890Z,1.09
2019-02-18T01:32:41.522Z,1.05
2019-02-18T01:37:47.449Z,1.22
2019-02-18T01:42:53.055Z,1.33
2019-02-18T01:47:58.982Z,1.44
2019-02-18T01:53:04.620Z,0.67
2019-02-18T01:58:10.243Z,0.44
2019-02-18T02:03:15.851Z,0.24
2019-02-18T02:08:21.452Z,0.54
2019-02-18T02:13:32.442Z,1.23
2019-02-18T02:18:38.123Z,1.09
2019-02-18T02:23:43.728Z,0.78
2019-02-18T02:28:49.352Z,0.78
2019-02-18T02:33:55.186Z,0.77
2019-02-18T02:39:00.769Z,0.69
2019-02-18T02:44:06.717Z,0.74
2019-02-18T02:49:12.448Z,0.85
2019-02-18T02:54:18.128Z,0.54
2019-02-18T02:59:23.885Z,0.52
2019-02-18T03:04:29.679Z,0.84
2019-02-18T03:09:35.285Z,0.75
2019-02-18T03:14:41.109Z,0.04
2019-02-18T03:19:47.346Z,-0.19
2019-02-18T03:25:20.272Z,-0.26
2019-02-18T03:30:43.955Z,0.25
2019-02-18T03:35:49.930Z,0.54
2019-02-18T03:41:03.124Z,0.51
2019-02-18T03:46:03.017Z,0.11
2019-02-18T03:51:08.845Z,-0.36
2019-02-18T03:56:14.459Z,-0.03
2019-02-18T04:01:20.130Z,0.39
2019-02-18T04:06:26.065Z,0.48
2019-02-18T04:11:31.983Z,0.36
2019-02-18T04:16:37.613Z,-0.06
2019-02-18T04:21:43.401Z,-0.45
2019-02-18T04:26:49.024Z,-0.42
2019-02-18T04:31:54.929Z,0.24
2019-02-18T04:37:00.809Z,0.23
2019-02-18T04:42:06.730Z,0.33
2019-02-18T04:47:13.480Z,0.15
2019-02-18T04:52:19.101Z,-0.01
2019-02-18T04:57:25.156Z,0.06
2019-02-18T05:02:30.783Z,0.02
2019-02-18T05:07:36.583Z,-0.27
2019-02-18T05:12:42.259Z,-0.28
2019-02-18T05:17:48.325Z,-0.48
2019-02-18T05:22:54.017Z,-0.37
2019-02-18T05:27:59.705Z,-0.03
2019-02-18T05:33:05.475Z,0.08
2019-02-18T05:38:11.147Z,0.01
2019-02-18T05:43:16.768Z,-0.15
2019-02-18T05:48:22.406Z,-0.41
2019-02-18T05:53:28.032Z,-0.27
2019-02-18T05:58:33.690Z,-0.15
2019-02-18T06:03:39.468Z,-0.23
2019-02-18T06:08:45.092Z,-0.17
2019-02-18T06:13:51.093Z,-0.32
2019-02-18T06:18:56.739Z,-0.03
2019-02-18T06:24:02.819Z,0.26
2019-02-18T06:29:08.897Z,0.53
2019-02-18T06:34:14.516Z,0.25
2019-02-18T06:39:20.273Z,-0.16
2019-02-18T06:44:36.207Z,-0.47
2019-02-18T06:49:41.922Z,0.38
2019-02-18T06:54:47.642Z,0.81
2019-02-18T06:59:55.824Z,0.96
2019-02-18T07:05:09.136Z,1.31
2019-02-18T07:10:23.196Z,1.31
2019-02-18T07:15:28.982Z,1.53
2019-02-18T07:20:34.746Z,1.66
2019-02-18T07:25:40.362Z,1.81
2019-02-18T07:30:46.192Z,1.69
2019-02-18T07:35:51.900Z,1.75
2019-02-18T07:40:57.687Z,1.91
2019-02-18T07:46:03.606Z,1.89
2019-02-18T07:51:09.259Z,1.81
2019-02-18T07:56:14.904Z,1.62
2019-02-18T08:01:20.713Z,2.30
2019-02-18T08:06:26.513Z,2.73
2019-02-18T08:11:32.210Z,2.86
2019-02-18T08:16:37.822Z,3.35
2019-02-18T08:21:43.775Z,3.74
2019-02-18T08:26:49.430Z,3.91
2019-02-18T08:31:55.366Z,4.15
2019-02-18T08:37:01.002Z,4.54
2019-02-18T08:42:06.899Z,4.95
2019-02-18T08:47:12.535Z,5.02
2019-02-18T08:52:18.403Z,5.10
2019-02-18T08:57:24.375Z,5.36
2019-02-18T09:02:30.123Z,5.60
2019-02-18T09:07:36.349Z,5.71
2019-02-18T09:12:42.180Z,5.82
2019-02-18T09:17:47.904Z,5.93
2019-02-18T09:23:02.070Z,6.06
2019-02-18T09:28:07.863Z,6.24
2019-02-18T09:33:13.944Z,6.52
2019-02-18T09:38:24.809Z,6.66
2019-02-18T09:43:26.882Z,6.87
2019-02-18T09:48:32.515Z,7.03
2019-02-18T09:53:38.430Z,7.30
2019-02-18T09:58:44.197Z,7.45
2019-02-18T10:03:50.467Z,7.69
2019-02-18T10:08:56.094Z,7.96
2019-02-18T10:14:02.135Z,7.95
2019-02-18T10:19:07.953Z,8.10
2019-02-18T10:24:13.843Z,8.24
2019-02-18T10:29:19.466Z,8.48
2019-02-18T10:34:25.512Z,8.64
2019-02-18T10:39:31.175Z,8.65
2019-02-18T10:44:37.442Z,8.91
2019-02-18T10:49:43.319Z,9.13
2019-02-18T10:54:49.691Z,9.22
2019-02-18T10:59:55.695Z,9.46
2019-02-18T11:05:01.900Z,9.60
2019-02-18T11:10:11.587Z,9.71
2019-02-18T11:15:17.614Z,9.91
2019-02-18T11:20:23.885Z,10.07
2019-02-18T11:25:29.784Z,10.17
2019-02-18T11:30:36.024Z,10.44
2019-02-18T11:35:41.672Z,10.28
2019-02-18T11:40:47.566Z,10.38
2019-02-18T11:45:53.641Z,10.70
2019-02-18T11:50:59.283Z,10.79
2019-02-18T11:56:05.138Z,10.85
2019-02-18T12:01:11.010Z,10.66
2019-02-18T12:06:16.679Z,10.71
2019-02-18T12:11:22.635Z,10.91
2019-02-18T12:16:28.711Z,10.92
2019-02-18T12:21:34.477Z,11.05
2019-02-18T12:26:40.577Z,11.22
2019-02-18T12:31:46.183Z,11.40
2019-02-18T12:36:52.203Z,11.16
2019-02-18T12:41:58.151Z,11.17
2019-02-18T12:47:04.053Z,11.46
2019-02-18T12:52:10.022Z,11.40
2019-02-18T12:57:16.308Z,11.40
2019-02-18T13:02:22.305Z,11.68
2019-02-18T13:07:28.088Z,12.22
2019-02-18T13:12:34.092Z,11.89
2019-02-18T13:17:42.563Z,12.21
2019-02-18T13:22:47.567Z,12.69
2019-02-18T13:27:53.767Z,13.63
2019-02-18T13:37:03.866Z,13.05
2019-02-18T13:42:09.941Z,13.08
2019-02-18T13:47:15.569Z,13.55
2019-02-18T13:52:21.873Z,13.82
2019-02-18T13:57:27.586Z,13.82
2019-02-18T14:02:33.587Z,13.76
2019-02-18T14:07:39.295Z,13.42
2019-02-18T14:12:45.287Z,13.29
2019-02-18T14:17:50.928Z,13.18
2019-02-18T14:22:56.954Z,13.28
2019-02-18T14:28:02.833Z,13.54
2019-02-18T14:33:08.748Z,13.38
2019-02-18T14:38:14.856Z,13.09
2019-02-18T14:43:20.666Z,13.42
2019-02-18T14:48:26.452Z,13.30
2019-02-18T14:53:32.705Z,13.76
2019-02-18T14:58:38.824Z,13.71
2019-02-18T15:03:44.425Z,13.37
2019-02-18T15:08:50.427Z,13.37
2019-02-18T15:13:56.417Z,13.38
2019-02-18T15:19:02.152Z,13.28
2019-02-18T15:24:08.135Z,12.83
2019-02-18T15:29:14.616Z,12.63
2019-02-18T15:34:20.311Z,12.33
2019-02-18T15:39:26.277Z,12.14
2019-02-18T15:44:32.177Z,11.79
2019-02-18T15:49:37.815Z,11.45
2019-02-18T15:54:43.726Z,11.25
2019-02-18T15:59:49.961Z,10.98
2019-02-18T16:04:55.849Z,10.82
2019-02-18T16:10:02.394Z,10.58
2019-02-18T16:15:08.420Z,10.37
2019-02-18T16:20:14.320Z,10.16
2019-02-18T16:25:21.473Z,9.82
2019-02-18T16:30:27.426Z,9.63
2019-02-18T16:35:33.539Z,9.46
2019-02-18T16:40:39.222Z,9.15
2019-02-18T16:45:45.210Z,8.82
2019-02-18T16:50:51.514Z,8.71
2019-02-18T16:55:57.551Z,8.45
2019-02-18T17:01:05.020Z,8.14
2019-02-18T17:06:11.409Z,7.85
2019-02-18T17:11:17.311Z,7.53
2019-02-18T17:16:23.341Z,7.48
2019-02-18T17:21:29.049Z,7.53
2019-02-18T17:26:35.228Z,7.63
2019-02-18T17:31:41.342Z,7.50
2019-02-18T17:36:46.985Z,6.99
2019-02-18T17:41:53.144Z,6.92
2019-02-18T17:46:59.093Z,6.45
2019-02-18T17:52:05.443Z,6.51
2019-02-18T17:57:11.309Z,6.60
2019-02-18T18:02:17.155Z,6.21
2019-02-18T18:07:22.989Z,6.13
2019-02-18T18:12:29.487Z,6.15
2019-02-18T18:17:35.618Z,6.11
2019-02-18T18:22:41.634Z,5.95
2019-02-18T18:27:47.657Z,6.18
2019-02-18T18:32:53.449Z,6.09
2019-02-18T18:37:59.486Z,5.92
2019-02-18T18:43:05.151Z,5.51
2019-02-18T18:48:11.070Z,5.21
2019-02-18T18:53:16.742Z,5.42
2019-02-18T18:58:22.666Z,5.46
2019-02-18T19:03:28.335Z,5.44
2019-02-18T19:08:34.103Z,4.94
2019-02-18T19:13:42.104Z,4.59
2019-02-18T19:18:47.683Z,4.50
2019-02-18T19:23:53.458Z,4.66
2019-02-18T19:28:59.267Z,4.63
2019-02-18T19:34:05.436Z,4.72
2019-02-18T19:39:12.624Z,4.78
2019-02-18T19:44:17.290Z,4.81
2019-02-18T19:49:23.498Z,4.65
2019-02-18T19:54:29.375Z,4.73
2019-02-18T19:59:35.051Z,4.76
2019-02-18T20:04:41.151Z,4.54
2019-02-18T20:09:47.499Z,4.45
2019-02-18T20:14:53.495Z,4.53
2019-02-18T20:19:59.155Z,4.46
2019-02-18T20:25:05.503Z,4.24
2019-02-18T20:30:11.875Z,3.91
2019-02-18T20:35:17.786Z,3.98
2019-02-18T20:40:23.864Z,4.08
2019-02-18T20:45:29.532Z,4.09
2019-02-18T20:50:35.457Z,3.58
2019-02-18T20:55:41.140Z,3.70
2019-02-18T21:00:46.782Z,3.78
2019-02-18T21:05:52.478Z,3.46
2019-02-18T21:10:58.171Z,3.27
2019-02-18T21:16:04.009Z,2.80
2019-02-18T21:21:09.845Z,2.92
2019-02-18T21:26:16.066Z,2.76
2019-02-18T21:31:21.815Z,2.49
2019-02-18T21:36:27.739Z,2.62
2019-02-18T21:41:33.716Z,2.39
2019-02-18T21:46:39.770Z,2.33
2019-02-18T21:51:45.749Z,1.91
2019-02-18T21:56:51.394Z,2.19
2019-02-18T22:01:57.031Z,2.24
2019-02-18T22:07:02.990Z,1.96
2019-02-18T22:12:08.582Z,0.93
2019-02-18T22:17:14.603Z,1.24
2019-02-18T22:22:21.118Z,1.72
2019-02-18T22:27:27.424Z,2.12
2019-02-18T22:32:33.948Z,2.39
2019-02-18T22:37:39.928Z,2.20
2019-02-18T22:42:45.903Z,1.83
2019-02-18T22:47:51.504Z,1.58
2019-02-18T22:52:57.396Z,0.99
2019-02-18T22:58:03.031Z,1.42
2019-02-18T23:03:08.947Z,1.51
2019-02-18T23:08:14.566Z,1.62
2019-02-18T23:13:20.238Z,1.75
2019-02-18T23:18:25.905Z,1.86
2019-02-18T23:23:32.017Z,1.81
2019-02-18T23:28:38.401Z,1.72
2019-02-18T23:33:44.492Z,1.80
2019-02-18T23:38:50.129Z,1.92
2019-02-18T23:43:56.021Z,1.54
2019-02-18T23:49:02.261Z,1.57
2019-02-18T23:54:08.434Z,1.29
2019-02-18T23:59:14.610Z,1.40
